Time,TemperatureF,DewpointF,PressureIn,WindDirection,WindDirectionDegrees,WindSpeedMPH,WindSpeedGustMPH,Humidity,HourlyPrecipIn,Conditions,Clouds,dailyrainin,SoftwareType,DateUTC
2013-01-07 00:03:00,22.2,20.5,30.42,East,81,0.0,0.0,93,0.00,,,0.00,Wunderground v.1.15,2013-01-07 06:03:00,
2013-01-07 00:08:00,22.0,20.3,30.43,East,80,0.0,0.0,93,0.00,,,0.00,Wunderground v.1.15,2013-01-07 06:08:00,
2013-01-07 00:14:00,21.9,20.4,30.43,East,80,0.0,0.0,94,0.00,,,0.00,Wunderground v.1.15,2013-01-07 06:14:00,
2013-01-07 00:20:00,22.3,20.8,30.43,East,81,0.0,0.0,94,0.00,,,0.00,Wunderground v.1.15,2013-01-07 06:20:00,
2013-01-07 00:26:00,22.6,21.1,30.43,East,80,0.0,0.0,94,0.00,,,0.00,Wunderground v.1.15,2013-01-07 06:26:00,
2013-01-07 00:31:00,22.9,21.7,30.43,East,81,0.0,0.0,95,0.00,,,0.00,Wunderground v.1.15,2013-01-07 06:31:00,
2013-01-07 00:37:00,23.3,21.8,30.43,East,80,0.0,0.0,94,0.00,,,0.00,Wunderground v.1.15,2013-01-07 06:37:00,
2013-01-07 00:43:00,23.4,21.7,30.42,East,81,0.0,0.0,93,0.00,,,0.00,Wunderground v.1.15,2013-01-07 06:43:00,
2013-01-07 00:49:00,22.9,20.9,30.43,East,80,0.0,0.0,92,0.00,,,0.00,Wunderground v.1.15,2013-01-07 06:49:00,
2013-01-07 00:54:00,23.0,21.3,30.43,East,81,0.0,0.0,93,0.00,,,0.00,Wunderground v.1.15,2013-01-07 06:54:00,
2013-01-07 01:00:00,22.9,21.2,30.43,East,81,0.0,0.0,93,0.00,,,0.00,Wunderground v.1.15,2013-01-07 07:00:00,
2013-01-07 01:06:00,22.3,20.3,30.43,East,80,0.0,0.0,92,0.00,,,0.00,Wunderground v.1.15,2013-01-07 07:06:00,
2013-01-07 01:12:00,22.6,21.1,30.43,East,80,0.0,0.0,94,0.00,,,0.00,Wunderground v.1.15,2013-01-07 07:12:00,
2013-01-07 01:18:00,22.9,21.4,30.43,East,80,0.0,0.0,94,0.00,,,0.00,Wunderground v.1.15,2013-01-07 07:18:00,
2013-01-07 01:23:00,22.8,21.3,30.43,East,81,0.0,0.0,94,0.00,,,0.00,Wunderground v.1.15,2013-01-07 07:23:00,
2013-01-07 01:29:00,22.9,21.4,30.43,East,80,0.0,1.0,94,0.00,,,0.00,Wunderground v.1.15,2013-01-07 07:29:00,
2013-01-07 01:35:00,22.9,21.4,30.43,East,81,0.0,0.0,94,0.00,,,0.00,Wunderground v.1.15,2013-01-07 07:35:00,
2013-01-07 01:41:00,22.9,21.2,30.43,East,80,0.0,0.0,93,0.00,,,0.00,Wunderground v.1.15,2013-01-07 07:41:00,
2013-01-07 01:47:00,23.0,21.5,30.44,East,80,0.0,0.0,94,0.00,,,0.00,Wunderground v.1.15,2013-01-07 07:47:00,
2013-01-07 01:52:00,22.8,21.1,30.44,East,81,0.0,0.0,93,0.00,,,0.00,Wunderground v.1.15,2013-01-07 07:52:00,
2013-01-07 01:57:00,22.5,21.0,30.44,East,80,0.0,0.0,94,0.00,,,0.00,Wunderground v.1.15,2013-01-07 07:57:00,
2013-01-07 02:02:00,22.9,21.4,30.44,East,80,0.0,0.0,94,0.00,,,0.00,Wunderground v.1.15,2013-01-07 08:02:00,
2013-01-07 02:07:00,23.1,21.6,30.44,East,81,0.0,0.0,94,0.00,,,0.00,Wunderground v.1.15,2013-01-07 08:07:00,
2013-01-07 02:12:00,22.8,21.1,30.44,East,81,0.0,0.0,93,0.00,,,0.00,Wunderground v.1.15,2013-01-07 08:12:00,
2013-01-07 02:17:00,22.5,20.8,30.44,East,80,0.0,0.0,93,0.00,,,0.00,Wunderground v.1.15,2013-01-07 08:17:00,
2013-01-07 02:22:00,22.3,20.6,30.44,East,80,0.0,0.0,93,0.00,,,0.00,Wunderground v.1.15,2013-01-07 08:22:00,
2013-01-07 02:27:00,22.0,20.3,30.44,East,81,0.0,0.0,93,0.00,,,0.00,Wunderground v.1.15,2013-01-07 08:27:00,
2013-01-07 02:32:00,21.6,19.9,30.44,East,80,0.0,0.0,93,0.00,,,0.00,Wunderground v.1.15,2013-01-07 08:32:00,
2013-01-07 02:37:00,21.5,20.0,30.44,East,80,0.0,0.0,94,0.00,,,0.00,Wunderground v.1.15,2013-01-07 08:37:00,
2013-01-07 02:42:00,21.7,20.2,30.44,East,80,0.0,0.0,94,0.00,,,0.00,Wunderground v.1.15,2013-01-07 08:42:00,
2013-01-07 02:47:00,21.5,20.0,30.45,East,81,0.0,0.0,94,0.00,,,0.00,Wunderground v.1.15,2013-01-07 08:47:00,
2013-01-07 02:52:00,21.4,19.9,30.45,East,81,0.0,0.0,94,0.00,,,0.00,Wunderground v.1.15,2013-01-07 08:52:00,
2013-01-07 02:57:00,21.1,19.6,30.45,East,80,0.0,0.0,94,0.00,,,0.00,Wunderground v.1.15,2013-01-07 08:57:00,
2013-01-07 03:02:00,20.8,19.1,30.45,East,80,0.0,0.0,93,0.00,,,0.00,Wunderground v.1.15,2013-01-07 09:02:00,
2013-01-07 03:07:00,20.4,18.7,30.45,East,80,0.0,0.0,93,0.00,,,0.00,Wunderground v.1.15,2013-01-07 09:07:00,
2013-01-07 03:12:00,20.0,18.3,30.45,East,80,0.0,0.0,93,0.00,,,0.00,Wunderground v.1.15,2013-01-07 09:12:00,
2013-01-07 03:17:00,19.7,18.0,30.45,East,80,0.0,0.0,93,0.00,,,0.00,Wunderground v.1.15,2013-01-07 09:17:00,
2013-01-07 03:22:00,19.4,17.7,30.45,East,81,0.0,0.0,93,0.00,,,0.00,Wunderground v.1.15,2013-01-07 09:22:00,
2013-01-07 03:27:00,19.2,17.5,30.45,East,80,0.0,0.0,93,0.00,,,0.00,Wunderground v.1.15,2013-01-07 09:27:00,
2013-01-07 03:32:00,19.0,17.6,30.45,East,80,0.0,0.0,94,0.00,,,0.00,Wunderground v.1.15,2013-01-07 09:32:00,
2013-01-07 03:37:00,18.9,17.5,30.45,East,80,0.0,0.0,94,0.00,,,0.00,Wunderground v.1.15,2013-01-07 09:37:00,
2013-01-07 03:42:00,18.8,17.4,30.45,East,81,0.0,0.0,94,0.00,,,0.00,Wunderground v.1.15,2013-01-07 09:42:00,
2013-01-07 03:47:00,19.0,17.8,30.45,East,80,0.0,0.0,95,0.00,,,0.00,Wunderground v.1.15,2013-01-07 09:47:00,
2013-01-07 03:52:00,19.1,17.9,30.45,East,80,0.0,0.0,95,0.00,,,0.00,Wunderground v.1.15,2013-01-07 09:52:00,
2013-01-07 03:57:00,19.0,17.6,30.45,East,80,0.0,0.0,94,0.00,,,0.00,Wunderground v.1.15,2013-01-07 09:57:00,
2013-01-07 04:02:00,18.7,17.3,30.45,East,81,0.0,0.0,94,0.00,,,0.00,Wunderground v.1.15,2013-01-07 10:02:00,
2013-01-07 04:07:00,18.5,17.1,30.45,East,80,0.0,0.0,94,0.00,,,0.00,Wunderground v.1.15,2013-01-07 10:07:00,
2013-01-07 04:12:00,18.8,17.6,30.44,East,81,0.0,0.0,95,0.00,,,0.00,Wunderground v.1.15,2013-01-07 10:12:00,
2013-01-07 04:17:00,19.3,18.1,30.44,East,81,0.0,0.0,95,0.00,,,0.00,Wunderground v.1.15,2013-01-07 10:17:00,
2013-01-07 04:22:00,19.5,18.3,30.44,East,81,0.0,0.0,95,0.00,,,0.00,Wunderground v.1.15,2013-01-07 10:22:00,
2013-01-07 04:27:00,19.9,18.9,30.44,East,81,0.0,0.0,96,0.00,,,0.00,Wunderground v.1.15,2013-01-07 10:27:00,
2013-01-07 04:32:00,20.0,18.8,30.44,East,81,0.0,0.0,95,0.00,,,0.00,Wunderground v.1.15,2013-01-07 10:32:00,
2013-01-07 04:38:00,20.1,18.9,30.44,East,80,0.0,0.0,95,0.00,,,0.00,Wunderground v.1.15,2013-01-07 10:38:00,
2013-01-07 04:43:00,20.2,19.0,30.44,East,80,0.0,0.0,95,0.00,,,0.00,Wunderground v.1.15,2013-01-07 10:43:00,
2013-01-07 04:48:00,20.1,18.9,30.44,East,80,0.0,0.0,95,0.00,,,0.00,Wunderground v.1.15,2013-01-07 10:48:00,
2013-01-07 04:53:00,20.0,18.6,30.44,East,80,0.0,0.0,94,0.00,,,0.00,Wunderground v.1.15,2013-01-07 10:53:00,
2013-01-07 04:58:00,19.6,18.2,30.44,East,80,0.0,0.0,94,0.00,,,0.00,Wunderground v.1.15,2013-01-07 10:58:00,
2013-01-07 05:03:00,19.1,17.7,30.44,East,81,0.0,0.0,94,0.00,,,0.00,Wunderground v.1.15,2013-01-07 11:03:00,
2013-01-07 05:08:00,19.2,17.8,30.44,East,81,0.0,0.0,94,0.00,,,0.00,Wunderground v.1.15,2013-01-07 11:08:00,
2013-01-07 05:13:00,19.4,18.2,30.44,East,80,0.0,0.0,95,0.00,,,0.00,Wunderground v.1.15,2013-01-07 11:13:00,
2013-01-07 05:18:00,19.7,18.5,30.44,East,81,0.0,0.0,95,0.00,,,0.00,Wunderground v.1.15,2013-01-07 11:18:00,
2013-01-07 05:23:00,20.1,18.9,30.44,East,80,0.0,0.0,95,0.00,,,0.00,Wunderground v.1.15,2013-01-07 11:23:00,
2013-01-07 05:28:00,20.4,19.2,30.44,East,80,0.0,0.0,95,0.00,,,0.00,Wunderground v.1.15,2013-01-07 11:28:00,
2013-01-07 05:33:00,20.7,19.5,30.44,East,88,0.0,0.0,95,0.00,,,0.00,Wunderground v.1.15,2013-01-07 11:33:00,
2013-01-07 05:38:00,20.7,19.5,30.44,ESE,111,0.0,0.0,95,0.00,,,0.00,Wunderground v.1.15,2013-01-07 11:38:00,
2013-01-07 05:43:00,20.6,19.1,30.44,ESE,111,0.0,0.0,94,0.00,,,0.00,Wunderground v.1.15,2013-01-07 11:43:00,
2013-01-07 05:48:00,21.0,19.8,30.45,ESE,111,0.0,0.0,95,0.00,,,0.00,Wunderground v.1.15,2013-01-07 11:48:00,
2013-01-07 05:53:00,21.1,19.9,30.45,ESE,111,0.0,0.0,95,0.00,,,0.00,Wunderground v.1.15,2013-01-07 11:53:00,
2013-01-07 05:58:00,20.6,18.9,30.45,ESE,110,0.0,0.0,93,0.00,,,0.00,Wunderground v.1.15,2013-01-07 11:58:00,
2013-01-07 06:03:00,19.9,18.2,30.45,ESE,110,0.0,0.0,93,0.00,,,0.00,Wunderground v.1.15,2013-01-07 12:03:00,
2013-01-07 06:08:00,20.0,18.6,30.45,ESE,111,0.0,0.0,94,0.00,,,0.00,Wunderground v.1.15,2013-01-07 12:08:00,
2013-01-07 06:13:00,20.5,19.3,30.45,ESE,110,0.0,0.0,95,0.00,,,0.00,Wunderground v.1.15,2013-01-07 12:13:00,
2013-01-07 06:18:00,20.7,19.5,30.45,ESE,105,0.0,1.0,95,0.00,,,0.00,Wunderground v.1.15,2013-01-07 12:18:00,
2013-01-07 06:23:00,20.5,19.0,30.45,ESE,105,0.0,1.0,94,0.00,,,0.00,Wunderground v.1.15,2013-01-07 12:23:00,
2013-01-07 06:28:00,20.4,18.9,30.45,ESE,108,0.0,1.0,94,0.00,,,0.00,Wunderground v.1.15,2013-01-07 12:28:00,
2013-01-07 06:33:00,20.5,19.0,30.45,ESE,107,0.0,1.0,94,0.00,,,0.00,Wunderground v.1.15,2013-01-07 12:33:00,
2013-01-07 06:38:00,20.5,19.0,30.45,ESE,105,0.0,1.0,94,0.00,,,0.00,Wunderground v.1.15,2013-01-07 12:38:00,
2013-01-07 06:43:00,20.3,18.8,30.46,ESE,105,0.0,0.0,94,0.00,,,0.00,Wunderground v.1.15,2013-01-07 12:43:00,
2013-01-07 06:48:00,20.5,19.0,30.46,ESE,104,0.0,1.0,94,0.00,,,0.00,Wunderground v.1.15,2013-01-07 12:48:00,
2013-01-07 06:53:00,20.7,19.5,30.46,ESE,105,0.0,1.0,95,0.00,,,0.00,Wunderground v.1.15,2013-01-07 12:53:00,
2013-01-07 06:58:00,20.9,19.7,30.46,ESE,104,0.0,1.0,95,0.00,,,0.00,Wunderground v.1.15,2013-01-07 12:58:00,
2013-01-07 07:03:00,20.9,19.7,30.46,ESE,104,0.0,0.0,95,0.00,,,0.00,Wunderground v.1.15,2013-01-07 13:03:00,
2013-01-07 07:08:00,20.7,19.2,30.47,ESE,105,0.0,1.0,94,0.00,,,0.00,Wunderground v.1.15,2013-01-07 13:08:00,
2013-01-07 07:13:00,20.3,18.6,30.47,ESE,104,0.0,0.0,93,0.00,,,0.00,Wunderground v.1.15,2013-01-07 13:13:00,
2013-01-07 07:18:00,20.1,18.7,30.47,ESE,105,0.0,0.0,94,0.00,,,0.00,Wunderground v.1.15,2013-01-07 13:18:00,
2013-01-07 07:23:00,20.0,18.6,30.47,ESE,105,0.0,0.0,94,0.00,,,0.00,Wunderground v.1.15,2013-01-07 13:23:00,
2013-01-07 07:28:00,20.4,19.2,30.48,ESE,105,0.0,1.0,95,0.00,,,0.00,Wunderground v.1.15,2013-01-07 13:28:00,
2013-01-07 07:33:00,20.8,19.6,30.47,ESE,105,0.0,1.0,95,0.00,,,0.00,Wunderground v.1.15,2013-01-07 13:33:00,
2013-01-07 07:38:00,21.2,20.0,30.47,ESE,104,0.0,1.0,95,0.00,,,0.00,Wunderground v.1.15,2013-01-07 13:38:00,
2013-01-07 07:43:00,21.7,20.5,30.48,ESE,104,0.0,0.0,95,0.00,,,0.00,Wunderground v.1.15,2013-01-07 13:43:00,
2013-01-07 07:48:00,22.1,20.9,30.48,ESE,105,0.0,0.0,95,0.00,,,0.00,Wunderground v.1.15,2013-01-07 13:48:00,
2013-01-07 07:53:00,22.6,21.4,30.48,ESE,105,0.0,1.0,95,0.00,,,0.00,Wunderground v.1.15,2013-01-07 13:53:00,
2013-01-07 07:58:00,23.0,21.5,30.48,ESE,105,0.0,1.0,94,0.00,,,0.00,Wunderground v.1.15,2013-01-07 13:58:00,
2013-01-07 08:03:00,23.3,21.8,30.48,ESE,105,0.0,1.0,94,0.00,,,0.00,Wunderground v.1.15,2013-01-07 14:03:00,
2013-01-07 08:08:00,23.5,21.8,30.48,ESE,105,0.0,1.0,93,0.00,,,0.00,Wunderground v.1.15,2013-01-07 14:08:00,
2013-01-07 08:13:00,23.9,22.4,30.48,ESE,105,0.0,0.0,94,0.00,,,0.00,Wunderground v.1.15,2013-01-07 14:13:00,
2013-01-07 08:18:00,24.4,22.7,30.48,ESE,104,0.0,1.0,93,0.00,,,0.00,Wunderground v.1.15,2013-01-07 14:18:00,
2013-01-07 08:23:00,24.6,22.6,30.48,NE,46,0.0,1.0,92,0.00,,,0.00,Wunderground v.1.15,2013-01-07 14:23:00,
2013-01-07 08:29:00,24.7,22.7,30.48,ENE,58,0.0,1.0,92,0.00,,,0.00,Wunderground v.1.15,2013-01-07 14:29:00,
2013-01-07 08:34:00,25.1,23.4,30.48,East,86,1.0,1.0,93,0.00,,,0.00,Wunderground v.1.15,2013-01-07 14:34:00,
2013-01-07 08:39:00,25.7,24.0,30.48,East,81,0.0,1.0,93,0.00,,,0.00,Wunderground v.1.15,2013-01-07 14:39:00,
2013-01-07 08:44:00,26.2,24.2,30.48,ESE,104,0.0,2.0,92,0.00,,,0.00,Wunderground v.1.15,2013-01-07 14:44:00,
2013-01-07 08:49:00,26.7,24.7,30.49,East,93,0.0,2.0,92,0.00,,,0.00,Wunderground v.1.15,2013-01-07 14:49:00,
2013-01-07 08:54:00,27.2,24.9,30.49,ESE,108,0.0,2.0,91,0.00,,,0.00,Wunderground v.1.15,2013-01-07 14:54:00,
2013-01-07 08:59:00,27.7,25.4,30.49,NE,53,0.0,2.0,91,0.00,,,0.00,Wunderground v.1.15,2013-01-07 14:59:00,
2013-01-07 09:04:00,28.1,25.5,30.50,SE,127,1.0,2.0,90,0.00,,,0.00,Wunderground v.1.15,2013-01-07 15:04:00,
2013-01-07 09:09:00,28.6,26.0,30.50,ESE,105,1.0,4.0,90,0.00,,,0.00,Wunderground v.1.15,2013-01-07 15:09:00,
2013-01-07 09:14:00,28.9,26.1,30.50,SE,146,1.0,4.0,89,0.00,,,0.00,Wunderground v.1.15,2013-01-07 15:14:00,
2013-01-07 09:19:00,29.3,26.2,30.50,East,92,1.0,4.0,88,0.00,,,0.00,Wunderground v.1.15,2013-01-07 15:19:00,
2013-01-07 09:24:00,29.7,26.6,30.50,SE,132,2.0,2.0,88,0.00,,,0.00,Wunderground v.1.15,2013-01-07 15:24:00,
2013-01-07 09:29:00,30.2,27.1,30.51,ESE,119,0.0,3.0,88,0.00,,,0.00,Wunderground v.1.15,2013-01-07 15:29:00,
2013-01-07 09:34:00,30.6,26.3,30.51,ESE,116,1.0,6.0,84,0.00,,,0.00,Wunderground v.1.15,2013-01-07 15:34:00,
2013-01-07 09:39:00,30.8,26.8,30.51,ESE,117,3.0,6.0,85,0.00,,,0.00,Wunderground v.1.15,2013-01-07 15:39:00,
2013-01-07 09:44:00,31.1,26.8,30.51,SE,141,2.0,5.0,84,0.00,,,0.00,Wunderground v.1.15,2013-01-07 15:44:00,
2013-01-07 09:49:00,31.4,26.5,30.51,ESE,102,1.0,7.0,82,0.00,,,0.00,Wunderground v.1.15,2013-01-07 15:49:00,
2013-01-07 09:54:00,31.8,26.9,30.51,ESE,113,2.0,5.0,82,0.00,,,0.00,Wunderground v.1.15,2013-01-07 15:54:00,
2013-01-07 09:59:00,32.3,27.1,30.51,ESE,123,1.0,5.0,81,0.00,,,0.00,Wunderground v.1.15,2013-01-07 15:59:00,
2013-01-07 10:04:00,32.6,27.1,30.50,SSE,161,2.0,4.0,80,0.00,,,0.00,Wunderground v.1.15,2013-01-07 16:04:00,
2013-01-07 10:09:00,32.8,27.0,30.50,SSE,153,3.0,6.0,79,0.00,,,0.00,Wunderground v.1.15,2013-01-07 16:09:00,
2013-01-07 10:14:00,33.0,26.9,30.50,ESE,123,2.0,5.0,78,0.00,,,0.00,Wunderground v.1.15,2013-01-07 16:14:00,
2013-01-07 10:19:00,33.1,26.7,30.50,SE,134,0.0,6.0,77,0.00,,,0.00,Wunderground v.1.15,2013-01-07 16:19:00,
2013-01-07 10:24:00,33.3,26.9,30.50,East,101,2.0,5.0,77,0.00,,,0.00,Wunderground v.1.15,2013-01-07 16:24:00,
2013-01-07 10:29:00,33.4,27.0,30.49,East,95,0.0,6.0,77,0.00,,,0.00,Wunderground v.1.15,2013-01-07 16:29:00,
2013-01-07 10:34:00,33.9,27.4,30.49,East,101,3.0,6.0,77,0.00,,,0.00,Wunderground v.1.15,2013-01-07 16:34:00,
2013-01-07 10:39:00,33.8,26.7,30.48,South,179,4.0,7.0,75,0.00,,,0.00,Wunderground v.1.15,2013-01-07 16:39:00,
2013-01-07 10:44:00,34.1,27.0,30.48,SW,225,0.0,5.0,75,0.00,,,0.00,Wunderground v.1.15,2013-01-07 16:44:00,
2013-01-07 10:49:00,34.4,27.3,30.47,SE,125,2.0,6.0,75,0.00,,,0.00,Wunderground v.1.15,2013-01-07 16:49:00,
2013-01-07 10:54:00,34.6,27.2,30.47,ESE,117,4.0,7.0,74,0.00,,,0.00,Wunderground v.1.15,2013-01-07 16:54:00,
2013-01-07 10:59:00,34.7,26.6,30.46,SSE,150,0.0,7.0,72,0.00,,,0.00,Wunderground v.1.15,2013-01-07 16:59:00,
2013-01-07 11:04:00,35.1,27.0,30.46,ENE,72,3.0,6.0,72,0.00,,,0.00,Wunderground v.1.15,2013-01-07 17:04:00,
2013-01-07 11:09:00,35.4,27.6,30.45,SSE,156,4.0,6.0,73,0.00,,,0.00,Wunderground v.1.15,2013-01-07 17:09:00,
2013-01-07 11:14:00,35.5,26.7,30.45,SE,132,3.0,8.0,70,0.00,,,0.00,Wunderground v.1.15,2013-01-07 17:14:00,
2013-01-07 11:19:00,35.8,27.7,30.45,SW,221,0.0,8.0,72,0.00,,,0.00,Wunderground v.1.15,2013-01-07 17:19:00,
2013-01-07 11:24:00,36.4,27.2,30.44,ENE,66,3.0,6.0,69,0.00,,,0.00,Wunderground v.1.15,2013-01-07 17:24:00,
2013-01-07 11:29:00,36.5,26.9,30.44,SSE,150,3.0,6.0,68,0.00,,,0.00,Wunderground v.1.15,2013-01-07 17:29:00,
2013-01-07 11:34:00,36.7,27.1,30.44,East,101,4.0,6.0,68,0.00,,,0.00,Wunderground v.1.15,2013-01-07 17:34:00,
2013-01-07 11:39:00,36.8,27.2,30.43,East,100,2.0,6.0,68,0.00,,,0.00,Wunderground v.1.15,2013-01-07 17:39:00,
2013-01-07 11:44:00,37.2,27.6,30.43,SW,226,0.0,3.0,68,0.00,,,0.00,Wunderground v.1.15,2013-01-07 17:44:00,
2013-01-07 11:49:00,37.7,28.1,30.43,East,94,3.0,4.0,68,0.00,,,0.00,Wunderground v.1.15,2013-01-07 17:49:00,
2013-01-07 11:54:00,37.9,28.3,30.42,West,266,1.0,3.0,68,0.00,,,0.00,Wunderground v.1.15,2013-01-07 17:54:00,
2013-01-07 11:59:00,38.4,27.7,30.41,ENE,63,3.0,5.0,65,0.00,,,0.00,Wunderground v.1.15,2013-01-07 17:59:00,
2013-01-07 12:04:00,38.7,27.9,30.41,SSE,149,2.0,5.0,65,0.00,,,0.00,Wunderground v.1.15,2013-01-07 18:04:00,
2013-01-07 12:09:00,38.8,27.7,30.41,ESE,117,2.0,9.0,64,0.00,,,0.00,Wunderground v.1.15,2013-01-07 18:09:00,
2013-01-07 12:14:00,38.9,27.8,30.40,ESE,110,1.0,6.0,64,0.00,,,0.00,Wunderground v.1.15,2013-01-07 18:14:00,
2013-01-07 12:19:00,38.9,27.8,30.40,NE,37,1.0,6.0,64,0.00,,,0.00,Wunderground v.1.15,2013-01-07 18:19:00,
2013-01-07 12:24:00,39.2,28.0,30.40,East,94,3.0,5.0,64,0.00,,,0.00,Wunderground v.1.15,2013-01-07 18:24:00,
2013-01-07 12:29:00,40.0,28.4,30.39,SSE,162,3.0,5.0,63,0.00,,,0.00,Wunderground v.1.15,2013-01-07 18:29:00,
2013-01-07 12:34:00,40.7,28.7,30.39,SSE,163,2.0,5.0,62,0.00,,,0.00,Wunderground v.1.15,2013-01-07 18:34:00,
2013-01-07 12:39:00,40.8,28.4,30.39,SSE,147,5.0,5.0,61,0.00,,,0.00,Wunderground v.1.15,2013-01-07 18:39:00,
2013-01-07 12:44:00,40.6,27.8,30.38,SSE,150,2.0,7.0,60,0.00,,,0.00,Wunderground v.1.15,2013-01-07 18:44:00,
2013-01-07 12:49:00,40.8,29.2,30.38,NE,36,2.0,7.0,63,0.00,,,0.00,Wunderground v.1.15,2013-01-07 18:49:00,
2013-01-07 12:54:00,41.6,28.7,30.38,SSE,167,1.0,2.0,60,0.00,,,0.00,Wunderground v.1.15,2013-01-07 18:54:00,
2013-01-07 12:59:00,42.2,28.9,30.38,SE,132,1.0,4.0,59,0.00,,,0.00,Wunderground v.1.15,2013-01-07 18:59:00,
2013-01-07 13:04:00,42.6,28.0,30.38,SSE,167,3.0,5.0,56,0.00,,,0.00,Wunderground v.1.15,2013-01-07 19:04:00,
2013-01-07 13:09:00,42.4,27.8,30.37,SW,225,1.0,6.0,56,0.00,,,0.00,Wunderground v.1.15,2013-01-07 19:09:00,
2013-01-07 13:14:00,42.7,28.1,30.37,SSE,162,0.0,3.0,56,0.00,,,0.00,Wunderground v.1.15,2013-01-07 19:14:00,
2013-01-07 13:19:00,43.3,28.2,30.36,SSE,155,4.0,6.0,55,0.00,,,0.00,Wunderground v.1.15,2013-01-07 19:19:00,
2013-01-07 13:24:00,43.3,28.2,30.36,SW,217,1.0,7.0,55,0.00,,,0.00,Wunderground v.1.15,2013-01-07 19:24:00,
2013-01-07 13:29:00,43.7,28.6,30.36,SSE,153,1.0,7.0,55,0.00,,,0.00,Wunderground v.1.15,2013-01-07 19:29:00,
2013-01-07 13:34:00,43.9,28.8,30.36,SE,145,3.0,5.0,55,0.00,,,0.00,Wunderground v.1.15,2013-01-07 19:34:00,
2013-01-07 13:39:00,43.8,28.7,30.36,SE,125,0.0,5.0,55,0.00,,,0.00,Wunderground v.1.15,2013-01-07 19:39:00,
2013-01-07 13:44:00,44.3,29.1,30.36,ENE,70,2.0,3.0,55,0.00,,,0.00,Wunderground v.1.15,2013-01-07 19:44:00,
2013-01-07 13:49:00,44.5,28.4,30.36,SE,139,2.0,4.0,53,0.00,,,0.00,Wunderground v.1.15,2013-01-07 19:49:00,
2013-01-07 13:54:00,44.8,28.7,30.36,SW,226,3.0,3.0,53,0.00,,,0.00,Wunderground v.1.15,2013-01-07 19:54:00,
2013-01-07 13:59:00,45.0,29.3,30.36,SE,132,0.0,4.0,54,0.00,,,0.00,Wunderground v.1.15,2013-01-07 19:59:00,
2013-01-07 14:04:00,45.3,29.2,30.36,SSW,204,2.0,4.0,53,0.00,,,0.00,Wunderground v.1.15,2013-01-07 20:04:00,
2013-01-07 14:09:00,45.0,27.5,30.35,WSW,253,5.0,8.0,50,0.00,,,0.00,Wunderground v.1.15,2013-01-07 20:09:00,
2013-01-07 14:14:00,44.7,27.2,30.35,South,191,3.0,7.0,50,0.00,,,0.00,Wunderground v.1.15,2013-01-07 20:14:00,
2013-01-07 14:19:00,44.8,27.3,30.34,SSE,157,4.0,7.0,50,0.00,,,0.00,Wunderground v.1.15,2013-01-07 20:19:00,
2013-01-07 14:24:00,45.1,27.1,30.34,SSE,156,5.0,6.0,49,0.00,,,0.00,Wunderground v.1.15,2013-01-07 20:24:00,
2013-01-07 14:29:00,45.3,26.7,30.33,SW,221,7.0,8.0,48,0.00,,,0.00,Wunderground v.1.15,2013-01-07 20:29:00,
2013-01-07 14:34:00,45.2,27.2,30.33,SE,132,5.0,13.0,49,0.00,,,0.00,Wunderground v.1.15,2013-01-07 20:34:00,
2013-01-07 14:39:00,45.4,26.8,30.33,SE,136,4.0,13.0,48,0.00,,,0.00,Wunderground v.1.15,2013-01-07 20:39:00,
2013-01-07 14:44:00,45.7,27.1,30.32,SSE,153,5.0,9.0,48,0.00,,,0.00,Wunderground v.1.15,2013-01-07 20:44:00,
2013-01-07 14:49:00,45.5,26.9,30.32,SE,143,4.0,10.0,48,0.00,,,0.00,Wunderground v.1.15,2013-01-07 20:49:00,
2013-01-07 14:54:00,45.7,26.6,30.32,ESE,117,7.0,9.0,47,0.00,,,0.00,Wunderground v.1.15,2013-01-07 20:54:00,
2013-01-07 14:59:00,45.8,27.2,30.32,SSE,158,4.0,9.0,48,0.00,,,0.00,Wunderground v.1.15,2013-01-07 20:59:00,
2013-01-07 15:04:00,45.9,26.8,30.32,SE,127,2.0,6.0,47,0.00,,,0.00,Wunderground v.1.15,2013-01-07 21:04:00,
2013-01-07 15:09:00,45.8,27.7,30.32,SSE,148,2.0,9.0,49,0.00,,,0.00,Wunderground v.1.15,2013-01-07 21:09:00,
2013-01-07 15:14:00,46.3,27.2,30.32,South,169,5.0,5.0,47,0.00,,,0.00,Wunderground v.1.15,2013-01-07 21:14:00,
2013-01-07 15:19:00,46.6,27.4,30.31,East,100,3.0,6.0,47,0.00,,,0.00,Wunderground v.1.15,2013-01-07 21:19:00,
2013-01-07 15:24:00,46.5,26.8,30.31,SSE,163,4.0,7.0,46,0.00,,,0.00,Wunderground v.1.15,2013-01-07 21:24:00,
2013-01-07 15:29:00,46.2,27.1,30.31,SSE,153,3.0,7.0,47,0.00,,,0.00,Wunderground v.1.15,2013-01-07 21:29:00,
2013-01-07 15:34:00,46.4,27.2,30.31,SSE,148,3.0,5.0,47,0.00,,,0.00,Wunderground v.1.15,2013-01-07 21:34:00,
2013-01-07 15:39:00,46.5,27.3,30.31,SSE,150,2.0,6.0,47,0.00,,,0.00,Wunderground v.1.15,2013-01-07 21:39:00,
2013-01-07 15:44:00,46.6,27.4,30.31,East,100,3.0,5.0,47,0.00,,,0.00,Wunderground v.1.15,2013-01-07 21:44:00,
2013-01-07 15:49:00,46.4,27.2,30.30,SE,132,2.0,6.0,47,0.00,,,0.00,Wunderground v.1.15,2013-01-07 21:49:00,
2013-01-07 15:54:00,46.3,27.2,30.31,SE,146,4.0,7.0,47,0.00,,,0.00,Wunderground v.1.15,2013-01-07 21:54:00,
2013-01-07 15:59:00,46.1,26.4,30.30,SE,136,3.0,7.0,46,0.00,,,0.00,Wunderground v.1.15,2013-01-07 21:59:00,
2013-01-07 16:04:00,45.7,26.1,30.30,East,96,3.0,8.0,46,0.00,,,0.00,Wunderground v.1.15,2013-01-07 22:04:00,
2013-01-07 16:09:00,45.5,26.4,30.30,SE,142,0.0,8.0,47,0.00,,,0.00,Wunderground v.1.15,2013-01-07 22:09:00,
2013-01-07 16:14:00,45.5,26.4,30.29,SSE,149,2.0,5.0,47,0.00,,,0.00,Wunderground v.1.15,2013-01-07 22:14:00,
2013-01-07 16:19:00,45.2,26.7,30.30,SSE,150,1.0,5.0,48,0.00,,,0.00,Wunderground v.1.15,2013-01-07 22:19:00,
2013-01-07 16:24:00,45.2,26.1,30.29,SSE,158,4.0,5.0,47,0.00,,,0.00,Wunderground v.1.15,2013-01-07 22:24:00,
2013-01-07 16:29:00,44.4,26.4,30.29,SE,145,0.0,5.0,49,0.00,,,0.00,Wunderground v.1.15,2013-01-07 22:29:00,
2013-01-07 16:34:00,43.8,26.3,30.28,SE,141,2.0,4.0,50,0.00,,,0.00,Wunderground v.1.15,2013-01-07 22:34:00,
2013-01-07 16:39:00,43.1,26.7,30.28,SSE,158,1.0,4.0,52,0.00,,,0.00,Wunderground v.1.15,2013-01-07 22:39:00,
2013-01-07 16:44:00,42.6,26.6,30.28,SE,131,2.0,4.0,53,0.00,,,0.00,Wunderground v.1.15,2013-01-07 22:44:00,
2013-01-07 16:49:00,42.1,26.6,30.27,SSE,150,0.0,4.0,54,0.00,,,0.00,Wunderground v.1.15,2013-01-07 22:49:00,
2013-01-07 16:54:00,41.5,27.0,30.28,SSE,158,1.0,3.0,56,0.00,,,0.00,Wunderground v.1.15,2013-01-07 22:54:00,
2013-01-07 16:59:00,41.1,26.6,30.28,SE,126,0.0,3.0,56,0.00,,,0.00,Wunderground v.1.15,2013-01-07 22:59:00,
2013-01-07 17:04:00,40.6,26.5,30.27,SE,142,1.0,2.0,57,0.00,,,0.00,Wunderground v.1.15,2013-01-07 23:04:00,
2013-01-07 17:09:00,40.3,26.7,30.26,SE,127,1.0,3.0,58,0.00,,,0.00,Wunderground v.1.15,2013-01-07 23:09:00,
2013-01-07 17:14:00,40.0,26.8,30.26,SSE,158,0.0,2.0,59,0.00,,,0.00,Wunderground v.1.15,2013-01-07 23:14:00,
2013-01-07 17:19:00,39.7,26.5,30.27,SSE,159,0.0,2.0,59,0.00,,,0.00,Wunderground v.1.15,2013-01-07 23:19:00,
2013-01-07 17:24:00,39.5,26.3,30.26,SSE,158,0.0,1.0,59,0.00,,,0.00,Wunderground v.1.15,2013-01-07 23:24:00,
2013-01-07 17:29:00,39.3,26.2,30.26,ESE,121,0.0,1.0,59,0.00,,,0.00,Wunderground v.1.15,2013-01-07 23:29:00,
2013-01-07 17:34:00,38.9,26.2,30.26,SE,137,0.0,1.0,60,0.00,,,0.00,Wunderground v.1.15,2013-01-07 23:34:00,
2013-01-07 17:39:00,38.0,26.1,30.27,SE,136,0.0,1.0,62,0.00,,,0.00,Wunderground v.1.15,2013-01-07 23:39:00,
2013-01-07 17:44:00,36.5,25.8,30.28,SE,136,1.0,1.0,65,0.00,,,0.00,Wunderground v.1.15,2013-01-07 23:44:00,
2013-01-07 17:49:00,35.1,25.2,30.28,WNW,300,2.0,3.0,67,0.00,,,0.00,Wunderground v.1.15,2013-01-07 23:49:00,
2013-01-07 17:54:00,34.3,25.5,30.29,WNW,300,1.0,2.0,70,0.00,,,0.00,Wunderground v.1.15,2013-01-07 23:54:00,
2013-01-07 17:59:00,34.3,25.5,30.30,WNW,300,1.0,2.0,70,0.00,,,0.00,Wunderground v.1.15,2013-01-07 23:59:00,
2013-01-07 18:04:00,34.5,25.7,30.30,WNW,300,1.0,1.0,70,0.00,,,0.00,Wunderground v.1.15,2013-01-08 00:04:00,
2013-01-07 18:09:00,34.6,25.5,30.30,WNW,300,0.0,1.0,69,0.00,,,0.00,Wunderground v.1.15,2013-01-08 00:09:00,
2013-01-07 18:14:00,34.6,25.5,30.31,WNW,298,0.0,1.0,69,0.00,,,0.00,Wunderground v.1.15,2013-01-08 00:14:00,
2013-01-07 18:19:00,34.9,25.8,30.31,WNW,298,0.0,1.0,69,0.00,,,0.00,Wunderground v.1.15,2013-01-08 00:19:00,
2013-01-07 18:24:00,34.8,25.7,30.31,WNW,298,1.0,1.0,69,0.00,,,0.00,Wunderground v.1.15,2013-01-08 00:24:00,
2013-01-07 18:29:00,35.6,25.7,30.31,WNW,298,1.0,1.0,67,0.00,,,0.00,Wunderground v.1.15,2013-01-08 00:29:00,
2013-01-07 18:34:00,35.8,25.9,30.31,WNW,297,0.0,0.0,67,0.00,,,0.00,Wunderground v.1.15,2013-01-08 00:34:00,
2013-01-07 18:39:00,35.6,25.7,30.31,WNW,297,0.0,0.0,67,0.00,,,0.00,Wunderground v.1.15,2013-01-08 00:39:00,
2013-01-07 18:44:00,35.2,25.3,30.31,WNW,298,0.0,0.0,67,0.00,,,0.00,Wunderground v.1.15,2013-01-08 00:44:00,
2013-01-07 18:49:00,34.7,25.2,30.31,WNW,297,0.0,0.0,68,0.00,,,0.00,Wunderground v.1.15,2013-01-08 00:49:00,
2013-01-07 18:54:00,34.2,25.1,30.31,WNW,298,0.0,0.0,69,0.00,,,0.00,Wunderground v.1.15,2013-01-08 00:54:00,
2013-01-07 18:59:00,33.6,24.9,30.31,WNW,298,0.0,0.0,70,0.00,,,0.00,Wunderground v.1.15,2013-01-08 00:59:00,
2013-01-07 19:04:00,33.1,25.1,30.31,WNW,298,0.0,0.0,72,0.00,,,0.00,Wunderground v.1.15,2013-01-08 01:04:00,
2013-01-07 19:09:00,33.0,25.0,30.30,WNW,298,0.0,1.0,72,0.00,,,0.00,Wunderground v.1.15,2013-01-08 01:09:00,
2013-01-07 19:14:00,32.9,25.2,30.30,WNW,298,0.0,0.0,73,0.00,,,0.00,Wunderground v.1.15,2013-01-08 01:14:00,
2013-01-07 19:19:00,32.5,25.1,30.30,WNW,298,0.0,1.0,74,0.00,,,0.00,Wunderground v.1.15,2013-01-08 01:19:00,
2013-01-07 19:24:00,32.5,24.8,30.30,ESE,109,1.0,1.0,73,0.00,,,0.00,Wunderground v.1.15,2013-01-08 01:24:00,
2013-01-07 19:29:00,32.4,25.0,30.29,ESE,109,1.0,1.0,74,0.00,,,0.00,Wunderground v.1.15,2013-01-08 01:29:00,
2013-01-07 19:34:00,32.4,25.0,30.29,ESE,112,1.0,1.0,74,0.00,,,0.00,Wunderground v.1.15,2013-01-08 01:34:00,
2013-01-07 19:39:00,31.8,24.8,30.29,SE,127,1.0,2.0,75,0.00,,,0.00,Wunderground v.1.15,2013-01-08 01:39:00,
2013-01-07 19:44:00,31.5,24.8,30.29,SE,134,0.0,1.0,76,0.00,,,0.00,Wunderground v.1.15,2013-01-08 01:44:00,
2013-01-07 19:49:00,30.9,24.2,30.29,SE,134,0.0,1.0,76,0.00,,,0.00,Wunderground v.1.15,2013-01-08 01:49:00,
2013-01-07 19:55:00,30.2,24.2,30.29,SE,134,0.0,0.0,78,0.00,,,0.00,Wunderground v.1.15,2013-01-08 01:55:00,
2013-01-07 20:00:00,29.9,24.2,30.30,SE,134,0.0,0.0,79,0.00,,,0.00,Wunderground v.1.15,2013-01-08 02:00:00,
2013-01-07 20:05:00,29.4,23.7,30.29,SE,134,0.0,0.0,79,0.00,,,0.00,Wunderground v.1.15,2013-01-08 02:05:00,
2013-01-07 20:10:00,29.5,24.1,30.29,SE,134,0.0,0.0,80,0.00,,,0.00,Wunderground v.1.15,2013-01-08 02:10:00,
2013-01-07 20:15:00,29.9,24.2,30.29,SE,135,0.0,1.0,79,0.00,,,0.00,Wunderground v.1.15,2013-01-08 02:15:00,
2013-01-07 20:20:00,29.6,24.2,30.28,SE,135,0.0,0.0,80,0.00,,,0.00,Wunderground v.1.15,2013-01-08 02:20:00,
2013-01-07 20:25:00,29.0,23.6,30.28,SE,135,0.0,0.0,80,0.00,,,0.00,Wunderground v.1.15,2013-01-08 02:25:00,
2013-01-07 20:30:00,28.4,23.3,30.29,SE,135,0.0,0.0,81,0.00,,,0.00,Wunderground v.1.15,2013-01-08 02:30:00,
2013-01-07 20:35:00,27.8,23.0,30.29,SE,135,0.0,0.0,82,0.00,,,0.00,Wunderground v.1.15,2013-01-08 02:35:00,
2013-01-07 20:40:00,27.3,22.8,30.29,SE,135,0.0,0.0,83,0.00,,,0.00,Wunderground v.1.15,2013-01-08 02:40:00,
2013-01-07 20:45:00,26.9,22.4,30.29,SE,135,0.0,0.0,83,0.00,,,0.00,Wunderground v.1.15,2013-01-08 02:45:00,
2013-01-07 20:50:00,26.4,22.5,30.29,SE,135,0.0,0.0,85,0.00,,,0.00,Wunderground v.1.15,2013-01-08 02:50:00,
2013-01-07 20:55:00,27.0,23.6,30.29,SE,136,1.0,1.0,87,0.00,,,0.00,Wunderground v.1.15,2013-01-08 02:55:00,
2013-01-07 21:00:00,28.1,23.9,30.28,SSE,158,0.0,1.0,84,0.00,,,0.00,Wunderground v.1.15,2013-01-08 03:00:00,
2013-01-07 21:05:00,27.8,23.3,30.28,ESE,121,0.0,1.0,83,0.00,,,0.00,Wunderground v.1.15,2013-01-08 03:05:00,
2013-01-07 21:10:00,27.4,23.2,30.28,ESE,121,0.0,0.0,84,0.00,,,0.00,Wunderground v.1.15,2013-01-08 03:10:00,
2013-01-07 21:15:00,27.1,23.2,30.28,South,173,0.0,1.0,85,0.00,,,0.00,Wunderground v.1.15,2013-01-08 03:15:00,
2013-01-07 21:20:00,26.8,22.6,30.28,South,174,0.0,0.0,84,0.00,,,0.00,Wunderground v.1.15,2013-01-08 03:20:00,
2013-01-07 21:25:00,26.6,23.0,30.28,South,173,0.0,0.0,86,0.00,,,0.00,Wunderground v.1.15,2013-01-08 03:25:00,
2013-01-07 21:30:00,26.3,22.7,30.28,South,172,0.0,0.0,86,0.00,,,0.00,Wunderground v.1.15,2013-01-08 03:30:00,
2013-01-07 21:35:00,26.1,22.8,30.28,South,173,0.0,0.0,87,0.00,,,0.00,Wunderground v.1.15,2013-01-08 03:35:00,
2013-01-07 21:40:00,25.8,22.5,30.28,South,173,0.0,0.0,87,0.00,,,0.00,Wunderground v.1.15,2013-01-08 03:40:00,
2013-01-07 21:45:00,25.6,22.3,30.27,South,174,0.0,0.0,87,0.00,,,0.00,Wunderground v.1.15,2013-01-08 03:45:00,
2013-01-07 21:50:00,25.3,22.2,30.27,South,173,0.0,0.0,88,0.00,,,0.00,Wunderground v.1.15,2013-01-08 03:50:00,
2013-01-07 21:55:00,24.9,21.8,30.27,South,172,0.0,0.0,88,0.00,,,0.00,Wunderground v.1.15,2013-01-08 03:55:00,
2013-01-07 22:01:00,25.1,22.6,30.28,South,172,0.0,0.0,90,0.00,,,0.00,Wunderground v.1.15,2013-01-08 04:01:00,
2013-01-07 22:06:00,25.5,22.7,30.28,South,173,0.0,0.0,89,0.00,,,0.00,Wunderground v.1.15,2013-01-08 04:06:00,
2013-01-07 22:11:00,25.4,22.3,30.28,South,173,0.0,0.0,88,0.00,,,0.00,Wunderground v.1.15,2013-01-08 04:11:00,
2013-01-07 22:16:00,25.7,22.9,30.28,South,172,0.0,0.0,89,0.00,,,0.00,Wunderground v.1.15,2013-01-08 04:16:00,
2013-01-07 22:21:00,25.9,22.8,30.27,South,172,0.0,0.0,88,0.00,,,0.00,Wunderground v.1.15,2013-01-08 04:21:00,
2013-01-07 22:26:00,26.1,23.0,30.27,South,172,0.0,0.0,88,0.00,,,0.00,Wunderground v.1.15,2013-01-08 04:26:00,
2013-01-07 22:31:00,26.1,22.8,30.27,South,172,0.0,0.0,87,0.00,,,0.00,Wunderground v.1.15,2013-01-08 04:31:00,
2013-01-07 22:36:00,25.8,22.5,30.27,South,172,0.0,0.0,87,0.00,,,0.00,Wunderground v.1.15,2013-01-08 04:36:00,
2013-01-07 22:41:00,25.5,22.4,30.27,South,173,0.0,0.0,88,0.00,,,0.00,Wunderground v.1.15,2013-01-08 04:41:00,
2013-01-07 22:46:00,25.5,22.7,30.27,South,172,0.0,0.0,89,0.00,,,0.00,Wunderground v.1.15,2013-01-08 04:46:00,
2013-01-07 22:51:00,25.4,22.3,30.27,South,173,0.0,0.0,88,0.00,,,0.00,Wunderground v.1.15,2013-01-08 04:51:00,
2013-01-07 22:56:00,25.1,22.3,30.27,South,173,0.0,0.0,89,0.00,,,0.00,Wunderground v.1.15,2013-01-08 04:56:00,
2013-01-07 23:00:00,24.7,21.9,30.27,South,172,0.0,0.0,89,0.00,,,0.00,Wunderground v.1.15,2013-01-08 05:00:00,
2013-01-07 23:02:00,24.6,21.8,30.27,South,173,0.0,0.0,89,0.00,,,0.00,Wunderground v.1.15,2013-01-08 05:02:00,
2013-01-07 23:03:00,24.5,21.7,30.26,South,172,0.0,0.0,89,0.00,,,0.00,Wunderground v.1.15,2013-01-08 05:03:00,
2013-01-07 23:08:00,24.2,21.7,30.26,South,172,0.0,0.0,90,0.00,,,0.00,Wunderground v.1.15,2013-01-08 05:08:00,
2013-01-07 23:13:00,24.4,22.2,30.26,South,172,0.0,0.0,91,0.00,,,0.00,Wunderground v.1.15,2013-01-08 05:13:00,
2013-01-07 23:18:00,24.7,22.4,30.26,South,173,0.0,0.0,91,0.00,,,0.00,Wunderground v.1.15,2013-01-08 05:18:00,
2013-01-07 23:23:00,24.7,22.4,30.26,South,172,0.0,0.0,91,0.00,,,0.00,Wunderground v.1.15,2013-01-08 05:23:00,
2013-01-07 23:28:00,24.8,22.5,30.25,South,173,0.0,0.0,91,0.00,,,0.00,Wunderground v.1.15,2013-01-08 05:28:00,
2013-01-07 23:33:00,25.1,22.6,30.25,SSE,155,0.0,0.0,90,0.00,,,0.00,Wunderground v.1.15,2013-01-08 05:33:00,
2013-01-07 23:38:00,25.2,22.4,30.25,East,94,0.0,1.0,89,0.00,,,0.00,Wunderground v.1.15,2013-01-08 05:38:00,
2013-01-07 23:43:00,25.0,22.2,30.25,SE,134,0.0,1.0,89,0.00,,,0.00,Wunderground v.1.15,2013-01-08 05:43:00,
2013-01-07 23:48:00,24.7,21.9,30.25,SE,134,0.0,1.0,89,0.00,,,0.00,Wunderground v.1.15,2013-01-08 05:48:00,
2013-01-07 23:53:00,24.5,22.0,30.25,SE,134,0.0,0.0,90,0.00,,,0.00,Wunderground v.1.15,2013-01-08 05:53:00,
2013-01-07 23:58:00,24.2,21.4,30.25,SE,134,0.0,0.0,89,0.00,,,0.00,Wunderground v.1.15,2013-01-08 05:58:00,